Staplehurst, Nebraska
Current Conditions -  °F | °C
As of 10:13 AM on Thursday 23 Oct 2014 (Local Time) from KLNK Reporting Station
Moderate Fog Moderate Fog  
Wind Chill: 55°   Ceiling: 200
Heat Index: 55°   Visibility: 0.25mi
Dew Point: 55°   Wind: 0mph
Humidity: 100%   Direction: NA
Pressure: 30.09"   Gusts: NA
Location:  40.98°N, 97.17°W
Report Text: KLNK 231513Z 00000KT 1/4SM FG VV002 13/13 A3009 RMK AO2 T01280128 RVRNO
Loading
Personal Weather Stations






























Interactive Weather Map
Tropical Storm Tracking
New forecast layout! Learn more

10-Day Weather Forecast

Advertisements
Track Severe Weather on mobile